Broadway, Ohio
Current Conditions -  °F | °C
As of 3:13 PM on Sunday 21 Dec 2014 (Local Time) from KMRT Reporting Station
Clear Clear  
Wind Chill: 32°   Ceiling: Unl
Heat Index: 36°   Visibility: 7mi
Dew Point: 22°   Wind: 5mph
Humidity: 57%   Direction: 170°S
Pressure: 30.21"   Gusts: NA
Location:  40.34°N, 83.41°W
Report Text: KMRT 212013Z AUTO 17004KT 7SM CLR 02/M05 A3021 RMK AO2 T00221055
Loading
Personal Weather Stations






























Interactive Weather Map New forecast layout! Learn more

10-Day Weather Forecast

Advertisements
Track Severe Weather on mobile